sensor_id;sensor_type;location;lat;lon;timestamp;temperature;humidity
69546;SHT31;56766;52.260;20.746;2023-04-06T00:00:21;1.51;63.48
69546;SHT31;56766;52.260;20.746;2023-04-06T00:03:08;1.50;63.29
69546;SHT31;56766;52.260;20.746;2023-04-06T00:05:35;1.49;63.27
69546;SHT31;56766;52.260;20.746;2023-04-06T00:08:02;1.45;63.27
69546;SHT31;56766;52.260;20.746;2023-04-06T00:10:28;1.43;63.30
69546;SHT31;56766;52.260;20.746;2023-04-06T00:12:55;1.39;63.38
69546;SHT31;56766;52.260;20.746;2023-04-06T00:15:23;1.37;63.40
69546;SHT31;56766;52.260;20.746;2023-04-06T00:17:51;1.35;63.42
69546;SHT31;56766;52.260;20.746;2023-04-06T00:20:18;1.34;63.51
69546;SHT31;56766;52.260;20.746;2023-04-06T00:22:45;1.33;63.43
69546;SHT31;56766;52.260;20.746;2023-04-06T00:25:12;1.32;63.25
69546;SHT31;56766;52.260;20.746;2023-04-06T00:27:38;1.30;63.52
69546;SHT31;56766;52.260;20.746;2023-04-06T00:30:07;1.29;63.94
69546;SHT31;56766;52.260;20.746;2023-04-06T00:32:35;1.27;64.20
69546;SHT31;56766;52.260;20.746;2023-04-06T00:35:03;1.25;64.24
69546;SHT31;56766;52.260;20.746;2023-04-06T00:37:31;1.25;64.15
69546;SHT31;56766;52.260;20.746;2023-04-06T00:39:58;1.23;64.42
69546;SHT31;56766;52.260;20.746;2023-04-06T00:42:25;1.23;64.57
69546;SHT31;56766;52.260;20.746;2023-04-06T00:44:53;1.22;64.37
69546;SHT31;56766;52.260;20.746;2023-04-06T00:47:23;1.21;64.61
69546;SHT31;56766;52.260;20.746;2023-04-06T00:49:52;1.20;64.77
69546;SHT31;56766;52.260;20.746;2023-04-06T00:52:20;1.18;64.87
69546;SHT31;56766;52.260;20.746;2023-04-06T00:54:48;1.16;64.74
69546;SHT31;56766;52.260;20.746;2023-04-06T00:57:16;1.17;64.50
69546;SHT31;56766;52.260;20.746;2023-04-06T00:59:44;1.17;64.53
69546;SHT31;56766;52.260;20.746;2023-04-06T01:02:11;1.16;64.60
69546;SHT31;56766;52.260;20.746;2023-04-06T01:04:38;1.16;64.67
69546;SHT31;56766;52.260;20.746;2023-04-06T01:07:06;1.16;64.64
69546;SHT31;56766;52.260;20.746;2023-04-06T01:09:33;1.17;64.62
69546;SHT31;56766;52.260;20.746;2023-04-06T01:12:00;1.19;64.52
69546;SHT31;56766;52.260;20.746;2023-04-06T01:14:27;1.20;64.49
69546;SHT31;56766;52.260;20.746;2023-04-06T01:16:57;1.18;64.39
69546;SHT31;56766;52.260;20.746;2023-04-06T01:19:26;1.19;64.36
69546;SHT31;56766;52.260;20.746;2023-04-06T01:21:52;1.19;64.40
69546;SHT31;56766;52.260;20.746;2023-04-06T01:24:20;1.20;64.28
69546;SHT31;56766;52.260;20.746;2023-04-06T01:26:47;1.21;64.29
69546;SHT31;56766;52.260;20.746;2023-04-06T01:29:14;1.22;64.31
69546;SHT31;56766;52.260;20.746;2023-04-06T01:31:41;1.23;64.45
69546;SHT31;56766;52.260;20.746;2023-04-06T01:34:07;1.23;64.57
69546;SHT31;56766;52.260;20.746;2023-04-06T01:36:34;1.22;64.62
69546;SHT31;56766;52.260;20.746;2023-04-06T01:39:01;1.25;64.57
69546;SHT31;56766;52.260;20.746;2023-04-06T01:41:28;1.25;64.47
69546;SHT31;56766;52.260;20.746;2023-04-06T01:43:55;1.26;64.49
69546;SHT31;56766;52.260;20.746;2023-04-06T01:46:21;1.27;64.78
69546;SHT31;56766;52.260;20.746;2023-04-06T01:48:48;1.26;64.78
69546;SHT31;56766;52.260;20.746;2023-04-06T01:51:15;1.26;64.80
69546;SHT31;56766;52.260;20.746;2023-04-06T01:53:42;1.27;64.64
69546;SHT31;56766;52.260;20.746;2023-04-06T01:56:09;1.28;64.57
69546;SHT31;56766;52.260;20.746;2023-04-06T01:58:35;1.28;64.65
69546;SHT31;56766;52.260;20.746;2023-04-06T02:01:02;1.28;64.61
69546;SHT31;56766;52.260;20.746;2023-04-06T02:03:29;1.27;64.74
69546;SHT31;56766;52.260;20.746;2023-04-06T02:05:57;1.26;64.68
69546;SHT31;56766;52.260;20.746;2023-04-06T02:08:23;1.26;64.60
69546;SHT31;56766;52.260;20.746;2023-04-06T02:10:51;1.27;64.72
69546;SHT31;56766;52.260;20.746;2023-04-06T02:13:18;1.26;64.75
69546;SHT31;56766;52.260;20.746;2023-04-06T02:15:45;1.27;64.50
69546;SHT31;56766;52.260;20.746;2023-04-06T02:18:12;1.29;64.50
69546;SHT31;56766;52.260;20.746;2023-04-06T02:20:41;1.28;64.52
69546;SHT31;56766;52.260;20.746;2023-04-06T02:23:07;1.28;64.73
69546;SHT31;56766;52.260;20.746;2023-04-06T02:25:34;1.29;64.85
69546;SHT31;56766;52.260;20.746;2023-04-06T02:28:02;1.29;64.68
69546;SHT31;56766;52.260;20.746;2023-04-06T02:30:29;1.30;64.82
69546;SHT31;56766;52.260;20.746;2023-04-06T02:32:56;1.31;64.90
69546;SHT31;56766;52.260;20.746;2023-04-06T02:35:25;1.30;64.91
69546;SHT31;56766;52.260;20.746;2023-04-06T02:37:52;1.29;64.95
69546;SHT31;56766;52.260;20.746;2023-04-06T02:40:18;1.28;65.10
69546;SHT31;56766;52.260;20.746;2023-04-06T02:42:45;1.27;65.16
69546;SHT31;56766;52.260;20.746;2023-04-06T02:45:13;1.26;65.22
69546;SHT31;56766;52.260;20.746;2023-04-06T02:47:39;1.24;65.30
69546;SHT31;56766;52.260;20.746;2023-04-06T02:50:06;1.23;65.38
69546;SHT31;56766;52.260;20.746;2023-04-06T02:52:33;1.21;65.46
69546;SHT31;56766;52.260;20.746;2023-04-06T02:54:59;1.19;65.52
69546;SHT31;56766;52.260;20.746;2023-04-06T02:57:26;1.18;65.47
69546;SHT31;56766;52.260;20.746;2023-04-06T02:59:53;1.15;65.50
69546;SHT31;56766;52.260;20.746;2023-04-06T03:02:19;1.15;65.56
69546;SHT31;56766;52.260;20.746;2023-04-06T03:04:47;1.13;65.56
69546;SHT31;56766;52.260;20.746;2023-04-06T03:07:13;1.11;65.62
69546;SHT31;56766;52.260;20.746;2023-04-06T03:09:40;1.11;65.79
69546;SHT31;56766;52.260;20.746;2023-04-06T03:12:06;1.12;65.91
69546;SHT31;56766;52.260;20.746;2023-04-06T03:14:34;1.13;66.04
69546;SHT31;56766;52.260;20.746;2023-04-06T03:17:01;1.12;66.17
69546;SHT31;56766;52.260;20.746;2023-04-06T03:19:28;1.11;66.33
69546;SHT31;56766;52.260;20.746;2023-04-06T03:21:55;1.11;66.49
69546;SHT31;56766;52.260;20.746;2023-04-06T03:24:22;1.11;66.52
69546;SHT31;56766;52.260;20.746;2023-04-06T03:26:49;1.09;66.67
69546;SHT31;56766;52.260;20.746;2023-04-06T03:29:17;1.09;66.84
69546;SHT31;56766;52.260;20.746;2023-04-06T03:31:44;1.08;66.90
69546;SHT31;56766;52.260;20.746;2023-04-06T03:34:11;1.05;66.99
69546;SHT31;56766;52.260;20.746;2023-04-06T03:36:38;1.03;67.12
69546;SHT31;56766;52.260;20.746;2023-04-06T03:39:05;1.01;67.24
69546;SHT31;56766;52.260;20.746;2023-04-06T03:41:31;1.00;67.31
69546;SHT31;56766;52.260;20.746;2023-04-06T03:43:58;0.99;67.44
69546;SHT31;56766;52.260;20.746;2023-04-06T03:46:25;0.96;67.53
69546;SHT31;56766;52.260;20.746;2023-04-06T03:48:52;0.94;67.70
69546;SHT31;56766;52.260;20.746;2023-04-06T03:51:19;0.92;67.79
69546;SHT31;56766;52.260;20.746;2023-04-06T03:53:45;0.89;67.89
69546;SHT31;56766;52.260;20.746;2023-04-06T03:56:12;0.85;68.03
69546;SHT31;56766;52.260;20.746;2023-04-06T03:58:39;0.81;68.15
69546;SHT31;56766;52.260;20.746;2023-04-06T04:01:07;0.78;68.31
69546;SHT31;56766;52.260;20.746;2023-04-06T04:03:33;0.77;68.40
69546;SHT31;56766;52.260;20.746;2023-04-06T04:06:00;0.75;68.51
69546;SHT31;56766;52.260;20.746;2023-04-06T04:08:27;0.75;68.65
69546;SHT31;56766;52.260;20.746;2023-04-06T04:10:53;0.75;68.79
69546;SHT31;56766;52.260;20.746;2023-04-06T04:13:20;0.76;68.89
69546;SHT31;56766;52.260;20.746;2023-04-06T04:15:47;0.78;69.00
69546;SHT31;56766;52.260;20.746;2023-04-06T04:18:13;0.80;69.02
69546;SHT31;56766;52.260;20.746;2023-04-06T04:20:40;0.83;69.15
69546;SHT31;56766;52.260;20.746;2023-04-06T04:23:07;0.85;69.29
69546;SHT31;56766;52.260;20.746;2023-04-06T04:25:34;0.87;69.31
69546;SHT31;56766;52.260;20.746;2023-04-06T04:28:01;0.89;69.40
69546;SHT31;56766;52.260;20.746;2023-04-06T04:30:29;0.91;69.46
69546;SHT31;56766;52.260;20.746;2023-04-06T04:32:56;0.94;69.50
69546;SHT31;56766;52.260;20.746;2023-04-06T04:35:22;0.96;69.50
69546;SHT31;56766;52.260;20.746;2023-04-06T04:37:49;0.98;69.58
69546;SHT31;56766;52.260;20.746;2023-04-06T04:40:16;0.99;69.62
69546;SHT31;56766;52.260;20.746;2023-04-06T04:42:43;1.01;69.69
69546;SHT31;56766;52.260;20.746;2023-04-06T04:45:10;1.03;69.70
69546;SHT31;56766;52.260;20.746;2023-04-06T04:47:38;1.06;69.79
69546;SHT31;56766;52.260;20.746;2023-04-06T04:50:05;1.08;69.88
69546;SHT31;56766;52.260;20.746;2023-04-06T04:52:32;1.11;69.91
69546;SHT31;56766;52.260;20.746;2023-04-06T04:54:59;1.15;70.00
69546;SHT31;56766;52.260;20.746;2023-04-06T04:57:25;1.19;70.01
69546;SHT31;56766;52.260;20.746;2023-04-06T04:59:52;1.24;70.03
69546;SHT31;56766;52.260;20.746;2023-04-06T05:02:19;1.28;70.06
69546;SHT31;56766;52.260;20.746;2023-04-06T05:04:46;1.34;70.02
69546;SHT31;56766;52.260;20.746;2023-04-06T05:07:12;1.38;70.00
69546;SHT31;56766;52.260;20.746;2023-04-06T05:09:39;1.45;69.92
69546;SHT31;56766;52.260;20.746;2023-04-06T05:12:06;1.50;69.83
69546;SHT31;56766;52.260;20.746;2023-04-06T05:14:33;1.56;69.90
69546;SHT31;56766;52.260;20.746;2023-04-06T05:17:00;1.63;69.81
69546;SHT31;56766;52.260;20.746;2023-04-06T05:19:27;1.69;69.73
69546;SHT31;56766;52.260;20.746;2023-04-06T05:21:54;1.78;69.68
69546;SHT31;56766;52.260;20.746;2023-04-06T05:24:20;1.87;69.58
69546;SHT31;56766;52.260;20.746;2023-04-06T05:26:48;1.94;69.37
69546;SHT31;56766;52.260;20.746;2023-04-06T05:29:16;1.99;69.30
69546;SHT31;56766;52.260;20.746;2023-04-06T05:31:43;2.06;69.23
69546;SHT31;56766;52.260;20.746;2023-04-06T05:34:10;2.13;69.11
69546;SHT31;56766;52.260;20.746;2023-04-06T05:36:39;2.20;68.96
69546;SHT31;56766;52.260;20.746;2023-04-06T05:39:07;2.29;68.87
69546;SHT31;56766;52.260;20.746;2023-04-06T05:41:34;2.36;68.81
69546;SHT31;56766;52.260;20.746;2023-04-06T05:44:02;2.43;68.64
69546;SHT31;56766;52.260;20.746;2023-04-06T05:46:28;2.49;68.47
69546;SHT31;56766;52.260;20.746;2023-04-06T05:48:55;2.51;68.16
69546;SHT31;56766;52.260;20.746;2023-04-06T05:51:22;2.53;68.11
69546;SHT31;56766;52.260;20.746;2023-04-06T05:53:49;2.55;68.12
69546;SHT31;56766;52.260;20.746;2023-04-06T05:56:15;2.59;68.14
69546;SHT31;56766;52.260;20.746;2023-04-06T05:58:42;2.66;67.91
69546;SHT31;56766;52.260;20.746;2023-04-06T06:01:09;2.74;67.66
69546;SHT31;56766;52.260;20.746;2023-04-06T06:03:36;2.85;67.42
69546;SHT31;56766;52.260;20.746;2023-04-06T06:06:03;3.04;67.34
69546;SHT31;56766;52.260;20.746;2023-04-06T06:08:30;3.27;66.77
69546;SHT31;56766;52.260;20.746;2023-04-06T06:10:57;3.44;65.93
69546;SHT31;56766;52.260;20.746;2023-04-06T06:13:24;3.58;65.15
69546;SHT31;56766;52.260;20.746;2023-04-06T06:15:51;3.68;64.47
69546;SHT31;56766;52.260;20.746;2023-04-06T06:18:18;3.78;64.06
69546;SHT31;56766;52.260;20.746;2023-04-06T06:20:45;3.90;63.43
69546;SHT31;56766;52.260;20.746;2023-04-06T06:23:12;3.98;62.44
69546;SHT31;56766;52.260;20.746;2023-04-06T06:25:40;4.08;62.37
69546;SHT31;56766;52.260;20.746;2023-04-06T06:28:07;4.18;61.28
69546;SHT31;56766;52.260;20.746;2023-04-06T06:30:34;4.20;61.06
69546;SHT31;56766;52.260;20.746;2023-04-06T06:33:00;4.20;60.60
69546;SHT31;56766;52.260;20.746;2023-04-06T06:35:27;4.26;60.57
69546;SHT31;56766;52.260;20.746;2023-04-06T06:37:54;4.34;60.75
69546;SHT31;56766;52.260;20.746;2023-04-06T06:40:20;4.41;60.50
69546;SHT31;56766;52.260;20.746;2023-04-06T06:42:50;4.48;60.38
69546;SHT31;56766;52.260;20.746;2023-04-06T06:45:17;4.50;59.49
69546;SHT31;56766;52.260;20.746;2023-04-06T06:47:45;4.49;59.37
69546;SHT31;56766;52.260;20.746;2023-04-06T06:50:13;4.55;59.18
69546;SHT31;56766;52.260;20.746;2023-04-06T06:52:40;4.63;58.55
69546;SHT31;56766;52.260;20.746;2023-04-06T06:55:09;4.63;58.12
69546;SHT31;56766;52.260;20.746;2023-04-06T06:57:37;4.70;58.00
69546;SHT31;56766;52.260;20.746;2023-04-06T07:00:05;4.72;57.29
69546;SHT31;56766;52.260;20.746;2023-04-06T07:02:34;4.77;57.36
69546;SHT31;56766;52.260;20.746;2023-04-06T07:05:04;4.76;56.77
69546;SHT31;56766;52.260;20.746;2023-04-06T07:07:32;4.76;56.66
69546;SHT31;56766;52.260;20.746;2023-04-06T07:10:02;4.79;56.43
69546;SHT31;56766;52.260;20.746;2023-04-06T07:12:29;4.79;55.84
69546;SHT31;56766;52.260;20.746;2023-04-06T07:14:55;4.75;55.12
69546;SHT31;56766;52.260;20.746;2023-04-06T07:17:22;4.67;54.54
69546;SHT31;56766;52.260;20.746;2023-04-06T07:19:52;4.67;55.43
69546;SHT31;56766;52.260;20.746;2023-04-06T07:22:19;4.82;56.10
69546;SHT31;56766;52.260;20.746;2023-04-06T07:24:46;4.89;55.27
69546;SHT31;56766;52.260;20.746;2023-04-06T07:27:12;4.93;54.56
69546;SHT31;56766;52.260;20.746;2023-04-06T07:29:39;5.03;53.78
69546;SHT31;56766;52.260;20.746;2023-04-06T07:32:06;5.09;53.25
69546;SHT31;56766;52.260;20.746;2023-04-06T07:34:32;5.20;53.91
69546;SHT31;56766;52.260;20.746;2023-04-06T07:36:59;5.39;53.37
69546;SHT31;56766;52.260;20.746;2023-04-06T07:39:28;5.51;53.42
69546;SHT31;56766;52.260;20.746;2023-04-06T07:41:55;5.60;53.30
69546;SHT31;56766;52.260;20.746;2023-04-06T07:44:21;5.66;53.38
69546;SHT31;56766;52.260;20.746;2023-04-06T07:46:48;5.66;53.21
69546;SHT31;56766;52.260;20.746;2023-04-06T07:49:15;5.62;53.16
69546;SHT31;56766;52.260;20.746;2023-04-06T07:51:42;5.59;53.23
69546;SHT31;56766;52.260;20.746;2023-04-06T07:54:09;5.55;53.67
69546;SHT31;56766;52.260;20.746;2023-04-06T07:56:36;5.56;53.59
69546;SHT31;56766;52.260;20.746;2023-04-06T07:59:03;5.51;53.63
69546;SHT31;56766;52.260;20.746;2023-04-06T08:01:29;5.47;53.78
69546;SHT31;56766;52.260;20.746;2023-04-06T08:03:57;5.47;54.09
69546;SHT31;56766;52.260;20.746;2023-04-06T08:06:24;5.53;54.34
69546;SHT31;56766;52.260;20.746;2023-04-06T08:08:51;5.53;53.76
69546;SHT31;56766;52.260;20.746;2023-04-06T08:11:18;5.45;53.70
69546;SHT31;56766;52.260;20.746;2023-04-06T08:13:44;5.34;53.99
69546;SHT31;56766;52.260;20.746;2023-04-06T08:16:11;5.31;54.11
69546;SHT31;56766;52.260;20.746;2023-04-06T08:18:38;5.26;54.17
69546;SHT31;56766;52.260;20.746;2023-04-06T08:21:04;5.26;54.52
69546;SHT31;56766;52.260;20.746;2023-04-06T08:23:31;5.41;54.90
69546;SHT31;56766;52.260;20.746;2023-04-06T08:25:58;5.59;54.77
69546;SHT31;56766;52.260;20.746;2023-04-06T08:28:25;5.70;54.74
69546;SHT31;56766;52.260;20.746;2023-04-06T08:30:51;5.77;54.68
69546;SHT31;56766;52.260;20.746;2023-04-06T08:33:18;5.71;54.44
69546;SHT31;56766;52.260;20.746;2023-04-06T08:35:45;5.55;54.76
69546;SHT31;56766;52.260;20.746;2023-04-06T08:38:12;5.45;56.01
69546;SHT31;56766;52.260;20.746;2023-04-06T08:40:39;5.49;56.27
69546;SHT31;56766;52.260;20.746;2023-04-06T08:43:09;5.65;56.24
69546;SHT31;56766;52.260;20.746;2023-04-06T08:45:41;5.53;55.22
69546;SHT31;56766;52.260;20.746;2023-04-06T08:48:09;5.42;55.63
69546;SHT31;56766;52.260;20.746;2023-04-06T08:50:39;5.38;55.95
69546;SHT31;56766;52.260;20.746;2023-04-06T08:53:06;5.40;56.11
69546;SHT31;56766;52.260;20.746;2023-04-06T08:55:35;5.50;56.60
69546;SHT31;56766;52.260;20.746;2023-04-06T08:58:04;5.65;57.04
69546;SHT31;56766;52.260;20.746;2023-04-06T09:00:37;5.83;56.92
69546;SHT31;56766;52.260;20.746;2023-04-06T09:03:07;5.99;57.32
69546;SHT31;56766;52.260;20.746;2023-04-06T09:05:34;6.01;57.80
69546;SHT31;56766;52.260;20.746;2023-04-06T09:08:02;6.05;58.32
69546;SHT31;56766;52.260;20.746;2023-04-06T09:10:30;5.90;58.55
69546;SHT31;56766;52.260;20.746;2023-04-06T09:13:06;5.73;59.45
69546;SHT31;56766;52.260;20.746;2023-04-06T09:15:34;5.62;59.77
69546;SHT31;56766;52.260;20.746;2023-04-06T09:18:01;5.49;60.04
69546;SHT31;56766;52.260;20.746;2023-04-06T09:20:28;5.38;60.10
69546;SHT31;56766;52.260;20.746;2023-04-06T09:22:55;5.29;60.30
69546;SHT31;56766;52.260;20.746;2023-04-06T09:25:24;5.30;60.52
69546;SHT31;56766;52.260;20.746;2023-04-06T09:28:00;5.29;61.01
69546;SHT31;56766;52.260;20.746;2023-04-06T09:30:29;5.23;61.30
69546;SHT31;56766;52.260;20.746;2023-04-06T09:32:57;5.13;61.53
69546;SHT31;56766;52.260;20.746;2023-04-06T09:35:25;5.05;61.99
69546;SHT31;56766;52.260;20.746;2023-04-06T09:37:53;4.96;62.74
69546;SHT31;56766;52.260;20.746;2023-04-06T09:40:21;4.94;63.05
69546;SHT31;56766;52.260;20.746;2023-04-06T09:42:50;4.90;63.31
69546;SHT31;56766;52.260;20.746;2023-04-06T09:45:19;4.84;63.56
69546;SHT31;56766;52.260;20.746;2023-04-06T09:47:47;4.85;64.11
69546;SHT31;56766;52.260;20.746;2023-04-06T09:50:15;4.83;64.01
69546;SHT31;56766;52.260;20.746;2023-04-06T09:52:47;4.79;64.09
69546;SHT31;56766;52.260;20.746;2023-04-06T09:55:42;4.67;64.39
69546;SHT31;56766;52.260;20.746;2023-04-06T09:58:13;4.56;64.48
69546;SHT31;56766;52.260;20.746;2023-04-06T10:06:39;4.36;66.12
69546;SHT31;56766;52.260;20.746;2023-04-06T10:09:08;4.14;67.27
69546;SHT31;56766;52.260;20.746;2023-04-06T10:11:37;4.00;67.97
69546;SHT31;56766;52.260;20.746;2023-04-06T10:14:05;3.97;68.68
69546;SHT31;56766;52.260;20.746;2023-04-06T10:16:32;3.96;69.11
69546;SHT31;56766;52.260;20.746;2023-04-06T10:19:09;3.97;69.38
69546;SHT31;56766;52.260;20.746;2023-04-06T10:21:45;3.93;69.77
69546;SHT31;56766;52.260;20.746;2023-04-06T10:24:16;3.88;70.11
69546;SHT31;56766;52.260;20.746;2023-04-06T10:26:56;3.80;70.79
69546;SHT31;56766;52.260;20.746;2023-04-06T10:29:24;3.67;71.49
69546;SHT31;56766;52.260;20.746;2023-04-06T10:31:51;3.61;72.02
69546;SHT31;56766;52.260;20.746;2023-04-06T10:34:18;3.65;72.38
69546;SHT31;56766;52.260;20.746;2023-04-06T10:36:44;3.72;72.68
69546;SHT31;56766;52.260;20.746;2023-04-06T10:39:11;3.74;72.89
69546;SHT31;56766;52.260;20.746;2023-04-06T10:41:43;3.75;73.12
69546;SHT31;56766;52.260;20.746;2023-04-06T10:44:25;3.76;73.54
69546;SHT31;56766;52.260;20.746;2023-04-06T10:46:54;3.76;73.70
69546;SHT31;56766;52.260;20.746;2023-04-06T10:49:27;3.74;73.63
69546;SHT31;56766;52.260;20.746;2023-04-06T10:51:56;3.69;73.85
69546;SHT31;56766;52.260;20.746;2023-04-06T10:54:26;3.65;74.24
69546;SHT31;56766;52.260;20.746;2023-04-06T10:56:54;3.58;74.73
69546;SHT31;56766;52.260;20.746;2023-04-06T10:59:23;3.52;75.17
69546;SHT31;56766;52.260;20.746;2023-04-06T11:01:51;3.51;75.46
69546;SHT31;56766;52.260;20.746;2023-04-06T11:04:20;3.47;75.85
69546;SHT31;56766;52.260;20.746;2023-04-06T11:06:49;3.47;76.31
69546;SHT31;56766;52.260;20.746;2023-04-06T11:09:24;3.46;76.51
69546;SHT31;56766;52.260;20.746;2023-04-06T11:11:53;3.47;76.51
69546;SHT31;56766;52.260;20.746;2023-04-06T11:14:21;3.44;76.71
69546;SHT31;56766;52.260;20.746;2023-04-06T11:16:49;3.41;77.01
69546;SHT31;56766;52.260;20.746;2023-04-06T11:19:18;3.41;77.26
69546;SHT31;56766;52.260;20.746;2023-04-06T11:21:47;3.41;77.39
69546;SHT31;56766;52.260;20.746;2023-04-06T11:24:15;3.41;77.42
69546;SHT31;56766;52.260;20.746;2023-04-06T11:26:47;3.39;77.49
69546;SHT31;56766;52.260;20.746;2023-04-06T11:29:27;3.43;77.72
69546;SHT31;56766;52.260;20.746;2023-04-06T11:32:23;3.47;77.62
69546;SHT31;56766;52.260;20.746;2023-04-06T11:34:50;3.53;77.92
69546;SHT31;56766;52.260;20.746;2023-04-06T11:37:17;3.58;78.03
69546;SHT31;56766;52.260;20.746;2023-04-06T11:39:51;3.58;77.80
69546;SHT31;56766;52.260;20.746;2023-04-06T11:42:23;3.55;78.01
69546;SHT31;56766;52.260;20.746;2023-04-06T11:44:54;3.56;78.11
69546;SHT31;56766;52.260;20.746;2023-04-06T11:47:30;3.56;78.04
69546;SHT31;56766;52.260;20.746;2023-04-06T11:50:17;3.61;78.32
69546;SHT31;56766;52.260;20.746;2023-04-06T11:52:44;3.62;78.47
69546;SHT31;56766;52.260;20.746;2023-04-06T11:55:16;3.63;78.63
69546;SHT31;56766;52.260;20.746;2023-04-06T11:57:44;3.66;78.97
69546;SHT31;56766;52.260;20.746;2023-04-06T12:00:12;3.66;78.92
69546;SHT31;56766;52.260;20.746;2023-04-06T12:02:39;3.66;79.33
69546;SHT31;56766;52.260;20.746;2023-04-06T12:05:06;3.67;79.37
69546;SHT31;56766;52.260;20.746;2023-04-06T12:07:34;3.69;79.33
69546;SHT31;56766;52.260;20.746;2023-04-06T12:10:02;3.68;79.50
69546;SHT31;56766;52.260;20.746;2023-04-06T12:12:29;3.65;79.60
69546;SHT31;56766;52.260;20.746;2023-04-06T12:14:57;3.62;79.67
69546;SHT31;56766;52.260;20.746;2023-04-06T12:17:24;3.56;79.71
69546;SHT31;56766;52.260;20.746;2023-04-06T12:19:51;3.51;79.93
69546;SHT31;56766;52.260;20.746;2023-04-06T12:22:18;3.50;80.11
69546;SHT31;56766;52.260;20.746;2023-04-06T12:24:45;3.52;80.32
69546;SHT31;56766;52.260;20.746;2023-04-06T12:27:12;3.51;80.48
69546;SHT31;56766;52.260;20.746;2023-04-06T12:29:38;3.50;80.72
69546;SHT31;56766;52.260;20.746;2023-04-06T12:32:06;3.50;80.89
69546;SHT31;56766;52.260;20.746;2023-04-06T12:34:32;3.53;80.94
69546;SHT31;56766;52.260;20.746;2023-04-06T12:36:59;3.56;81.00
69546;SHT31;56766;52.260;20.746;2023-04-06T12:39:27;3.56;80.88
69546;SHT31;56766;52.260;20.746;2023-04-06T12:41:54;3.57;81.02
69546;SHT31;56766;52.260;20.746;2023-04-06T12:44:22;3.60;81.17
69546;SHT31;56766;52.260;20.746;2023-04-06T12:46:49;3.64;81.17
69546;SHT31;56766;52.260;20.746;2023-04-06T12:49:17;3.63;80.94
69546;SHT31;56766;52.260;20.746;2023-04-06T12:51:45;3.68;81.16
69546;SHT31;56766;52.260;20.746;2023-04-06T12:54:12;3.74;81.20
69546;SHT31;56766;52.260;20.746;2023-04-06T12:56:39;3.78;81.11
69546;SHT31;56766;52.260;20.746;2023-04-06T12:59:06;3.77;80.86
69546;SHT31;56766;52.260;20.746;2023-04-06T13:01:33;3.74;80.70
69546;SHT31;56766;52.260;20.746;2023-04-06T13:04:00;3.74;80.98
69546;SHT31;56766;52.260;20.746;2023-04-06T13:06:27;3.70;80.77
69546;SHT31;56766;52.260;20.746;2023-04-06T13:08:55;3.67;80.63
69546;SHT31;56766;52.260;20.746;2023-04-06T13:11:21;3.65;80.65
69546;SHT31;56766;52.260;20.746;2023-04-06T13:13:50;3.66;81.00
69546;SHT31;56766;52.260;20.746;2023-04-06T13:16:16;3.67;80.91
69546;SHT31;56766;52.260;20.746;2023-04-06T13:18:43;3.69;81.04
69546;SHT31;56766;52.260;20.746;2023-04-06T13:21:14;3.66;80.52
69546;SHT31;56766;52.260;20.746;2023-04-06T13:23:42;3.64;80.80
69546;SHT31;56766;52.260;20.746;2023-04-06T13:26:09;3.66;81.00
69546;SHT31;56766;52.260;20.746;2023-04-06T13:28:37;3.70;81.17
69546;SHT31;56766;52.260;20.746;2023-04-06T13:31:05;3.71;80.97
69546;SHT31;56766;52.260;20.746;2023-04-06T13:33:32;3.72;81.09
69546;SHT31;56766;52.260;20.746;2023-04-06T13:36:00;3.70;80.71
69546;SHT31;56766;52.260;20.746;2023-04-06T13:38:27;3.70;80.90
69546;SHT31;56766;52.260;20.746;2023-04-06T13:40:54;3.70;80.94
69546;SHT31;56766;52.260;20.746;2023-04-06T13:43:21;3.68;80.96
69546;SHT31;56766;52.260;20.746;2023-04-06T13:45:49;3.68;81.18
69546;SHT31;56766;52.260;20.746;2023-04-06T13:48:18;3.67;81.19
69546;SHT31;56766;52.260;20.746;2023-04-06T13:50:44;3.62;80.92
69546;SHT31;56766;52.260;20.746;2023-04-06T13:53:13;3.58;81.13
69546;SHT31;56766;52.260;20.746;2023-04-06T13:55:40;3.59;81.51
69546;SHT31;56766;52.260;20.746;2023-04-06T13:58:07;3.59;81.60
69546;SHT31;56766;52.260;20.746;2023-04-06T14:00:35;3.59;81.81
69546;SHT31;56766;52.260;20.746;2023-04-06T14:03:03;3.57;81.77
69546;SHT31;56766;52.260;20.746;2023-04-06T14:05:31;3.56;81.83
69546;SHT31;56766;52.260;20.746;2023-04-06T14:07:59;3.54;81.69
69546;SHT31;56766;52.260;20.746;2023-04-06T14:10:26;3.53;82.11
69546;SHT31;56766;52.260;20.746;2023-04-06T14:12:54;3.51;82.27
69546;SHT31;56766;52.260;20.746;2023-04-06T14:15:21;3.52;82.42
69546;SHT31;56766;52.260;20.746;2023-04-06T14:17:48;3.55;82.74
69546;SHT31;56766;52.260;20.746;2023-04-06T14:20:15;3.56;82.85
69546;SHT31;56766;52.260;20.746;2023-04-06T14:22:42;3.57;83.04
69546;SHT31;56766;52.260;20.746;2023-04-06T14:25:10;3.57;83.04
69546;SHT31;56766;52.260;20.746;2023-04-06T14:27:39;3.55;83.15
69546;SHT31;56766;52.260;20.746;2023-04-06T14:30:06;3.54;83.24
69546;SHT31;56766;52.260;20.746;2023-04-06T14:32:34;3.53;83.39
69546;SHT31;56766;52.260;20.746;2023-04-06T14:35:03;3.52;83.28
69546;SHT31;56766;52.260;20.746;2023-04-06T14:37:31;3.50;83.23
69546;SHT31;56766;52.260;20.746;2023-04-06T14:39:58;3.47;83.34
69546;SHT31;56766;52.260;20.746;2023-04-06T14:42:25;3.45;83.43
69546;SHT31;56766;52.260;20.746;2023-04-06T14:44:52;3.45;83.72
69546;SHT31;56766;52.260;20.746;2023-04-06T14:47:20;3.43;83.81
69546;SHT31;56766;52.260;20.746;2023-04-06T14:49:52;3.38;83.89
69546;SHT31;56766;52.260;20.746;2023-04-06T14:52:19;3.35;83.85
69546;SHT31;56766;52.260;20.746;2023-04-06T14:54:46;3.31;84.05
69546;SHT31;56766;52.260;20.746;2023-04-06T14:57:13;3.27;84.18
69546;SHT31;56766;52.260;20.746;2023-04-06T14:59:40;3.26;84.37
69546;SHT31;56766;52.260;20.746;2023-04-06T15:02:07;3.25;84.46
69546;SHT31;56766;52.260;20.746;2023-04-06T15:04:34;3.27;84.51
69546;SHT31;56766;52.260;20.746;2023-04-06T15:07:03;3.29;84.65
69546;SHT31;56766;52.260;20.746;2023-04-06T15:09:29;3.32;84.78
69546;SHT31;56766;52.260;20.746;2023-04-06T15:11:57;3.32;84.78
69546;SHT31;56766;52.260;20.746;2023-04-06T15:14:24;3.34;85.01
69546;SHT31;56766;52.260;20.746;2023-04-06T15:16:51;3.35;85.08
69546;SHT31;56766;52.260;20.746;2023-04-06T15:19:17;3.36;85.17
69546;SHT31;56766;52.260;20.746;2023-04-06T15:21:44;3.37;85.28
69546;SHT31;56766;52.260;20.746;2023-04-06T15:24:11;3.39;85.29
69546;SHT31;56766;52.260;20.746;2023-04-06T15:26:37;3.40;85.37
69546;SHT31;56766;52.260;20.746;2023-04-06T15:29:05;3.39;85.45
69546;SHT31;56766;52.260;20.746;2023-04-06T15:31:32;3.38;85.50
69546;SHT31;56766;52.260;20.746;2023-04-06T15:33:59;3.37;85.46
69546;SHT31;56766;52.260;20.746;2023-04-06T15:36:28;3.35;85.41
69546;SHT31;56766;52.260;20.746;2023-04-06T15:38:57;3.35;85.51